Portada
METAR-TAF:

METAR-TAF

Aeropuertos :

Ciudad Ho Chi Minh, Vietnam

Aeropuerto Internacional de Tan Son Nhat

latitud: 10-49N, longitud: 106-40E, altitud: 19 m

Observación

El informe se hizo hace 44 minutos, a las 22:30 UTC
Viento 4 kt del sureste
Temperatura 27°C
Humedad 89%
Presión 1009 hPa
Visibilidad 10 km o más
Escasas nubes a una altura de 1700 ft
Nubes dispersas a una altura de 5000 ft

METAR: VVTS 212230Z 13004KT 9999 FEW017 SCT050 27/25 Q1009 NOSIG

Hora: 06:14 (23:14 UTC)

Pronóstico

El informe se hizo hace 6 horas y 14 minutos, a las 17:00 UTC
Pronóstico válido del 21 a las 18 UTC al 22 a las 24 UTC
Viento 6 kt del sureste
Visibilidad 10 km o más
Nubes dispersas a una altura de 1700 ft

TAF: VVTS 211700Z 2118/2224 14006KT 9999 SCT017

Observaciones y pronósticos meteorológicos de más de 4000 aeropuertos (mensajes METAR y TAF).

Los puntos amarillos y rojos representan las estaciones disponibles.

Ponga el ratón en el punto deseado para ver el nombre de la estación.

Haga clic para ver las observaciones y los pronósticos meteorológicos.

Para cambiar el mapa : haga clic en los botones verdes con una cruz de color negro para hacer un zoom, en el botón verde con un guión para alejar o en las flechas verdes para mapas adyacentes.


METAR-TAF: